Time;durP1;ratioP1;P1;durP2;ratioP2;P2;SDS_P1;SDS_P2;PMS_P1;PMS_P2;Temp;Humidity;BMP_temperature;BMP_pressure;BME280_temperature;BME280_humidity;BME280_pressure;Samples;Min_cycle;Max_cycle;Signal;HPM_P1;HPM_P2
2021/08/20 00:00:55;;;;;;;11.00;8.60;;;;;;;;;;4971632;28;20408;-46
2021/08/20 00:03:21;;;;;;;10.80;7.30;;;;;;;;;;4971752;28;20520;-47
2021/08/20 00:05:47;;;;;;;7.53;6.80;;;;;;;;;;4971592;28;20449;-47
2021/08/20 00:08:13;;;;;;;9.43;7.40;;;;;;;;;;4971688;28;20459;-45
2021/08/20 00:10:39;;;;;;;10.37;8.57;;;;;;;;;;4971441;28;20599;-45
2021/08/20 00:13:05;;;;;;;10.27;8.17;;;;;;;;;;4971603;28;20429;-45
2021/08/20 00:15:31;;;;;;;9.93;8.20;;;;;;;;;;4971649;28;20905;-45
2021/08/20 00:17:57;;;;;;;7.80;6.67;;;;;;;;;;4971687;28;20484;-44
2021/08/20 00:20:23;;;;;;;8.70;7.77;;;;;;;;;;4971245;28;20432;-45
2021/08/20 00:22:49;;;;;;;12.40;7.83;;;;;;;;;;4971728;28;20375;-44
2021/08/20 00:25:15;;;;;;;9.47;8.47;;;;;;;;;;4972538;28;20452;-45
2021/08/20 00:27:41;;;;;;;10.67;7.87;;;;;;;;;;4975178;28;20772;-45
2021/08/20 00:30:08;;;;;;;8.77;7.87;;;;;;;;;;4975046;28;20417;-45
2021/08/20 00:32:35;;;;;;;11.20;8.57;;;;;;;;;;4975309;28;20416;-45
2021/08/20 00:35:01;;;;;;;8.83;7.40;;;;;;;;;;4975235;28;20385;-46
2021/08/20 00:37:27;;;;;;;9.83;7.93;;;;;;;;;;4975140;28;20463;-46
2021/08/20 00:39:53;;;;;;;8.90;7.77;;;;;;;;;;4974734;28;20400;-45
2021/08/20 00:42:19;;;;;;;8.40;7.10;;;;;;;;;;4974958;28;20421;-48
2021/08/20 00:44:45;;;;;;;9.10;7.23;;;;;;;;;;4975053;28;20416;-44
2021/08/20 00:47:11;;;;;;;10.40;7.97;;;;;;;;;;4975117;28;20468;-44
2021/08/20 00:49:37;;;;;;;8.77;7.20;;;;;;;;;;4974766;28;20425;-44
2021/08/20 00:52:03;;;;;;;7.73;6.93;;;;;;;;;;4974806;28;20372;-44
2021/08/20 00:54:29;;;;;;;10.07;7.47;;;;;;;;;;4974850;28;20779;-45
2021/08/20 00:56:55;;;;;;;8.50;7.53;;;;;;;;;;4974780;28;20410;-45
2021/08/20 00:59:24;;;;;;;13.33;8.43;;;;;;;;;;4974565;28;20518;-45
2021/08/20 01:01:50;;;;;;;11.70;8.03;;;;;;;;;;4974314;28;20391;-47
2021/08/20 01:04:16;;;;;;;12.13;8.43;;;;;;;;;;4974248;28;20390;-45
2021/08/20 01:06:42;;;;;;;9.90;8.37;;;;;;;;;;4974297;28;20457;-45
2021/08/20 01:09:08;;;;;;;14.40;8.33;;;;;;;;;;4974310;28;20405;-45
2021/08/20 01:11:34;;;;;;;12.80;7.70;;;;;;;;;;4974516;28;20422;-45
2021/08/20 01:14:00;;;;;;;10.13;8.30;;;;;;;;;;4974519;28;20376;-47
2021/08/20 01:16:27;;;;;;;10.20;7.80;;;;;;;;;;4974625;28;20776;-44
2021/08/20 01:18:53;;;;;;;10.67;7.83;;;;;;;;;;4974301;28;20418;-46
2021/08/20 01:21:21;;;;;;;10.30;7.67;;;;;;;;;;4974664;28;20413;-46
2021/08/20 01:23:49;;;;;;;9.50;7.37;;;;;;;;;;4974384;28;20411;-44
2021/08/20 01:26:15;;;;;;;12.70;6.93;;;;;;;;;;4974263;28;20512;-47
2021/08/20 01:28:41;;;;;;;9.00;7.03;;;;;;;;;;4974126;28;20703;-45
2021/08/20 01:31:09;;;;;;;10.50;7.90;;;;;;;;;;4974132;28;20406;-46
2021/08/20 01:33:35;;;;;;;11.00;8.17;;;;;;;;;;4974150;28;20486;-45
2021/08/20 01:36:01;;;;;;;8.23;7.03;;;;;;;;;;4973828;28;20405;-44
2021/08/20 01:38:27;;;;;;;8.40;6.73;;;;;;;;;;4972942;28;20754;-44
2021/08/20 01:40:54;;;;;;;9.87;8.20;;;;;;;;;;4974115;28;20415;-47
2021/08/20 01:43:23;;;;;;;9.63;7.60;;;;;;;;;;4974034;28;20405;-45
2021/08/20 01:45:50;;;;;;;10.80;7.50;;;;;;;;;;4973833;28;20459;-45
2021/08/20 01:48:16;;;;;;;8.17;7.30;;;;;;;;;;4973782;28;20401;-45
2021/08/20 01:50:42;;;;;;;11.10;7.53;;;;;;;;;;4973952;28;20425;-46
2021/08/20 01:53:09;;;;;;;9.00;7.80;;;;;;;;;;4973736;28;20456;-45
2021/08/20 01:55:35;;;;;;;9.40;7.80;;;;;;;;;;4973777;28;20413;-45
2021/08/20 01:58:03;;;;;;;10.83;7.17;;;;;;;;;;4973733;28;20417;-45
2021/08/20 02:00:29;;;;;;;13.23;7.83;;;;;;;;;;4973399;28;20439;-46
2021/08/20 02:02:55;;;;;;;7.60;6.70;;;;;;;;;;4973607;28;20498;-47
2021/08/20 02:05:21;;;;;;;12.70;7.03;;;;;;;;;;4973356;28;20518;-47
2021/08/20 02:07:46;;;;;;;13.47;7.73;;;;;;;;;;4973759;28;20410;-45
2021/08/20 02:10:13;;;;;;;9.40;7.70;;;;;;;;;;4973169;28;20428;-45
2021/08/20 02:12:38;;;;;;;8.10;7.20;;;;;;;;;;4973273;28;20792;-45
2021/08/20 02:15:05;;;;;;;8.67;7.47;;;;;;;;;;4973309;28;20414;-45
2021/08/20 02:17:31;;;;;;;8.40;6.53;;;;;;;;;;4973292;28;20805;-45
2021/08/20 02:19:57;;;;;;;9.87;8.40;;;;;;;;;;4972995;28;20403;-45
2021/08/20 02:22:23;;;;;;;9.87;8.10;;;;;;;;;;4973096;28;20748;-45
2021/08/20 02:24:52;;;;;;;10.17;7.60;;;;;;;;;;4973226;28;20842;-45
2021/08/20 02:27:18;;;;;;;12.83;6.93;;;;;;;;;;4973334;28;20457;-44
2021/08/20 02:29:44;;;;;;;12.83;8.87;;;;;;;;;;4972857;28;20424;-47
2021/08/20 02:32:10;;;;;;;10.33;8.90;;;;;;;;;;4973092;28;20397;-45
2021/08/20 02:34:36;;;;;;;9.60;7.97;;;;;;;;;;4973039;28;20468;-45
2021/08/20 02:37:02;;;;;;;9.10;8.17;;;;;;;;;;4972836;28;20960;-45
2021/08/20 02:39:28;;;;;;;14.37;8.97;;;;;;;;;;4972863;28;20425;-45
2021/08/20 02:41:54;;;;;;;8.83;8.00;;;;;;;;;;4972793;28;20946;-45
2021/08/20 02:44:20;;;;;;;12.73;8.93;;;;;;;;;;4972907;28;20410;-45
2021/08/20 02:46:46;;;;;;;10.10;9.10;;;;;;;;;;4972702;28;20467;-47
2021/08/20 02:49:12;;;;;;;11.70;9.40;;;;;;;;;;4972263;28;20432;-44
2021/08/20 02:51:38;;;;;;;12.00;10.60;;;;;;;;;;4972607;28;20438;-45
2021/08/20 02:54:04;;;;;;;11.50;10.20;;;;;;;;;;4972783;28;20541;-44
2021/08/20 02:56:30;;;;;;;10.57;9.47;;;;;;;;;;4972619;28;20417;-44
2021/08/20 02:58:56;;;;;;;16.23;11.50;;;;;;;;;;4972362;28;20456;-44
2021/08/20 03:01:22;;;;;;;16.53;10.77;;;;;;;;;;4972586;28;20804;-45
2021/08/20 03:03:48;;;;;;;17.30;14.80;;;;;;;;;;4972352;28;20742;-45
2021/08/20 03:06:15;;;;;;;20.13;15.03;;;;;;;;;;4972593;28;20432;-44
2021/08/20 03:08:41;;;;;;;21.03;15.30;;;;;;;;;;4972216;28;20405;-44
2021/08/20 03:11:07;;;;;;;20.73;15.17;;;;;;;;;;4972295;28;20472;-44
2021/08/20 03:13:33;;;;;;;26.10;16.70;;;;;;;;;;4972382;28;20405;-44
2021/08/20 03:15:59;;;;;;;22.30;15.23;;;;;;;;;;4972450;28;20412;-45
2021/08/20 03:18:25;;;;;;;25.23;17.27;;;;;;;;;;4972433;28;20419;-45
2021/08/20 03:20:51;;;;;;;21.37;15.60;;;;;;;;;;4972263;28;20421;-45
2021/08/20 03:23:17;;;;;;;22.70;15.60;;;;;;;;;;4972281;28;20405;-44
2021/08/20 03:25:43;;;;;;;17.80;15.17;;;;;;;;;;4972374;28;20468;-44
2021/08/20 03:28:09;;;;;;;20.53;15.20;;;;;;;;;;4972108;28;20492;-44
2021/08/20 03:30:35;;;;;;;19.10;14.10;;;;;;;;;;4972171;28;20418;-44
2021/08/20 03:33:02;;;;;;;23.43;15.50;;;;;;;;;;4972214;28;20405;-44
2021/08/20 03:35:28;;;;;;;23.17;16.87;;;;;;;;;;4972066;28;20470;-45
2021/08/20 03:37:54;;;;;;;24.40;17.47;;;;;;;;;;4972082;28;20405;-44
2021/08/20 03:40:24;;;;;;;20.80;15.37;;;;;;;;;;4971588;28;20929;-44
2021/08/20 03:42:50;;;;;;;20.97;16.90;;;;;;;;;;4972074;28;20467;-44
2021/08/20 03:45:16;;;;;;;20.37;16.70;;;;;;;;;;4971796;28;20496;-44
2021/08/20 03:47:42;;;;;;;22.60;16.30;;;;;;;;;;4971975;28;20714;-45
2021/08/20 03:50:08;;;;;;;23.60;16.73;;;;;;;;;;4971545;28;20421;-44
2021/08/20 03:52:34;;;;;;;21.07;15.30;;;;;;;;;;4972016;28;20490;-44
2021/08/20 03:55:00;;;;;;;21.77;16.07;;;;;;;;;;4971842;28;20843;-45
2021/08/20 03:57:26;;;;;;;21.53;16.20;;;;;;;;;;4971839;28;20754;-45
2021/08/20 03:59:52;;;;;;;23.40;16.40;;;;;;;;;;4971715;28;20511;-45
2021/08/20 04:02:17;;;;;;;25.53;16.60;;;;;;;;;;4975790;28;20483;-46
2021/08/20 04:04:43;;;;;;;24.07;17.50;;;;;;;;;;4975840;28;20424;-47
2021/08/20 04:07:09;;;;;;;23.33;16.00;;;;;;;;;;4975906;28;20849;-44
2021/08/20 04:09:35;;;;;;;23.57;16.30;;;;;;;;;;4975486;28;20399;-44
2021/08/20 04:12:01;;;;;;;21.77;16.77;;;;;;;;;;4975443;28;20786;-45
2021/08/20 04:14:27;;;;;;;26.93;16.10;;;;;;;;;;4975539;28;20408;-46
2021/08/20 04:16:53;;;;;;;21.93;16.10;;;;;;;;;;4975451;28;20977;-45
2021/08/20 04:19:19;;;;;;;21.20;16.77;;;;;;;;;;4975238;28;20429;-50
2021/08/20 04:21:45;;;;;;;25.57;17.80;;;;;;;;;;4975559;28;20913;-46
2021/08/20 04:24:14;;;;;;;19.47;15.83;;;;;;;;;;4975548;28;20469;-45
2021/08/20 04:26:40;;;;;;;23.70;16.67;;;;;;;;;;4975364;28;20423;-44
2021/08/20 04:29:06;;;;;;;23.63;17.13;;;;;;;;;;4975041;28;20510;-45
2021/08/20 04:31:32;;;;;;;22.97;17.17;;;;;;;;;;4975295;28;21164;-44
2021/08/20 04:33:58;;;;;;;25.30;18.10;;;;;;;;;;4975230;28;20404;-44
2021/08/20 04:36:24;;;;;;;25.33;17.90;;;;;;;;;;4975315;28;20440;-45
2021/08/20 04:38:50;;;;;;;29.50;20.27;;;;;;;;;;4974887;28;20494;-44
2021/08/20 04:41:16;;;;;;;28.27;19.77;;;;;;;;;;4975041;28;20383;-45
2021/08/20 04:43:42;;;;;;;32.27;21.33;;;;;;;;;;4974951;28;20824;-45
2021/08/20 04:46:08;;;;;;;33.93;21.33;;;;;;;;;;4975109;28;20844;-44
2021/08/20 04:48:34;;;;;;;26.23;19.60;;;;;;;;;;4974610;28;20394;-45
2021/08/20 04:51:00;;;;;;;34.87;21.83;;;;;;;;;;4975065;28;20404;-45
2021/08/20 04:53:32;;;;;;;32.87;20.87;;;;;;;;;;4974867;28;20383;-44
2021/08/20 04:55:58;;;;;;;31.10;21.50;;;;;;;;;;4974990;28;20459;-48
2021/08/20 04:58:25;;;;;;;35.47;23.20;;;;;;;;;;4974511;28;20767;-45
2021/08/20 05:00:51;;;;;;;30.70;20.87;;;;;;;;;;4975065;28;20492;-44
2021/08/20 05:03:17;;;;;;;35.20;22.93;;;;;;;;;;4974759;28;20413;-44
2021/08/20 05:05:46;;;;;;;29.73;20.90;;;;;;;;;;4974908;28;20442;-44
2021/08/20 05:08:13;;;;;;;30.67;22.20;;;;;;;;;;4974578;28;20383;-47
2021/08/20 05:10:39;;;;;;;32.97;22.97;;;;;;;;;;4974329;28;20417;-45
2021/08/20 05:13:06;;;;;;;31.27;20.47;;;;;;;;;;4974599;28;20520;-45
2021/08/20 05:15:32;;;;;;;29.77;21.60;;;;;;;;;;4974940;28;20384;-44
2021/08/20 05:17:58;;;;;;;37.27;22.87;;;;;;;;;;4974799;28;20380;-44
2021/08/20 05:20:24;;;;;;;33.63;21.07;;;;;;;;;;4974563;28;20872;-44
2021/08/20 05:22:54;;;;;;;33.03;21.80;;;;;;;;;;4974705;28;20740;-44
2021/08/20 05:25:21;;;;;;;29.50;20.43;;;;;;;;;;4974348;28;20401;-44
2021/08/20 05:27:47;;;;;;;29.60;21.43;;;;;;;;;;4974501;28;20398;-46
2021/08/20 05:30:14;;;;;;;31.83;19.10;;;;;;;;;;4973988;28;20921;-45
2021/08/20 05:32:40;;;;;;;32.60;20.40;;;;;;;;;;4974262;28;20431;-44
2021/08/20 05:35:07;;;;;;;30.10;19.63;;;;;;;;;;4974705;28;20408;-44
2021/08/20 05:37:33;;;;;;;26.73;19.30;;;;;;;;;;4974216;28;20676;-44
2021/08/20 05:39:59;;;;;;;37.43;20.77;;;;;;;;;;4973657;28;20430;-44
2021/08/20 05:42:25;;;;;;;24.97;18.10;;;;;;;;;;4974039;28;20492;-45
2021/08/20 05:44:50;;;;;;;24.70;17.70;;;;;;;;;;4973877;28;20384;-45
2021/08/20 05:47:16;;;;;;;23.83;16.80;;;;;;;;;;4973896;28;20539;-44
2021/08/20 05:49:42;;;;;;;31.60;18.67;;;;;;;;;;4973527;28;20428;-45
2021/08/20 05:52:08;;;;;;;22.87;17.80;;;;;;;;;;4973861;28;20412;-44
2021/08/20 05:54:35;;;;;;;21.97;16.30;;;;;;;;;;4973676;28;20397;-44
2021/08/20 05:57:01;;;;;;;24.00;17.60;;;;;;;;;;4973994;28;20473;-44
2021/08/20 05:59:27;;;;;;;20.80;16.97;;;;;;;;;;4973658;28;20556;-44
2021/08/20 06:01:53;;;;;;;21.53;16.00;;;;;;;;;;4973592;28;20440;-45
2021/08/20 06:04:19;;;;;;;22.43;16.07;;;;;;;;;;4973667;28;20894;-45
2021/08/20 06:06:45;;;;;;;25.23;15.80;;;;;;;;;;4973414;28;20826;-45
2021/08/20 06:09:11;;;;;;;25.63;16.17;;;;;;;;;;4973194;28;20918;-46
2021/08/20 06:11:36;;;;;;;24.57;16.20;;;;;;;;;;4973432;28;20767;-47
2021/08/20 06:14:02;;;;;;;23.90;16.00;;;;;;;;;;4973569;28;20901;-44
2021/08/20 06:16:28;;;;;;;20.47;15.00;;;;;;;;;;4973289;28;20456;-44
2021/08/20 06:18:54;;;;;;;24.27;15.40;;;;;;;;;;4973135;28;20431;-45
2021/08/20 06:21:20;;;;;;;22.80;15.90;;;;;;;;;;4973126;28;20471;-44
2021/08/20 06:23:46;;;;;;;21.83;15.27;;;;;;;;;;4972570;28;20384;-45
2021/08/20 06:26:12;;;;;;;23.50;16.40;;;;;;;;;;4973141;28;20802;-45
2021/08/20 06:28:38;;;;;;;28.60;16.17;;;;;;;;;;4973117;28;20441;-45
2021/08/20 06:31:04;;;;;;;25.80;14.57;;;;;;;;;;4973218;28;20407;-45
2021/08/20 06:33:34;;;;;;;21.53;15.27;;;;;;;;;;4973104;28;20399;-45
2021/08/20 06:36:00;;;;;;;28.17;17.40;;;;;;;;;;4973081;28;20853;-45
2021/08/20 06:38:26;;;;;;;26.70;15.07;;;;;;;;;;4972560;28;20403;-45
2021/08/20 06:40:52;;;;;;;30.50;18.27;;;;;;;;;;4972908;28;20855;-45
2021/08/20 06:43:18;;;;;;;32.83;16.90;;;;;;;;;;4972994;28;20389;-46
2021/08/20 06:45:44;;;;;;;26.57;15.20;;;;;;;;;;4972748;28;20447;-47
2021/08/20 06:48:10;;;;;;;29.00;17.47;;;;;;;;;;4972681;28;21017;-44
2021/08/20 06:50:36;;;;;;;24.90;17.50;;;;;;;;;;4972637;28;20815;-44
2021/08/20 06:53:02;;;;;;;26.17;16.87;;;;;;;;;;4972756;28;20374;-44
2021/08/20 06:55:32;;;;;;;27.17;16.37;;;;;;;;;;4972869;28;20948;-44
2021/08/20 06:57:57;;;;;;;22.27;15.00;;;;;;;;;;4972673;28;20384;-45
2021/08/20 07:00:23;;;;;;;23.47;15.60;;;;;;;;;;4972418;28;20431;-44
2021/08/20 07:02:49;;;;;;;27.17;16.10;;;;;;;;;;4972551;28;20487;-44
2021/08/20 07:05:16;;;;;;;28.70;18.00;;;;;;;;;;4972493;28;20901;-45
2021/08/20 07:07:42;;;;;;;27.93;18.33;;;;;;;;;;4972452;28;20409;-45
2021/08/20 07:10:09;;;;;;;28.00;18.30;;;;;;;;;;4972212;28;20461;-44
2021/08/20 07:12:36;;;;;;;23.20;16.10;;;;;;;;;;4972387;28;20806;-45
2021/08/20 07:15:03;;;;;;;27.53;17.80;;;;;;;;;;4972698;28;20895;-46
2021/08/20 07:17:29;;;;;;;27.57;18.00;;;;;;;;;;4971493;28;20404;-44
2021/08/20 07:19:55;;;;;;;25.57;17.53;;;;;;;;;;4972142;28;20424;-45
2021/08/20 07:22:21;;;;;;;31.03;18.50;;;;;;;;;;4972071;28;20408;-45
2021/08/20 07:24:46;;;;;;;32.30;17.93;;;;;;;;;;4971814;28;20985;-44
2021/08/20 07:27:12;;;;;;;31.67;20.00;;;;;;;;;;4972125;28;20434;-44
2021/08/20 07:29:38;;;;;;;32.60;18.47;;;;;;;;;;4971996;28;20427;-45
2021/08/20 07:32:05;;;;;;;30.70;18.30;;;;;;;;;;4972536;28;20435;-44
2021/08/20 07:34:31;;;;;;;31.03;19.47;;;;;;;;;;4971618;28;20383;-45
2021/08/20 07:36:57;;;;;;;27.70;18.37;;;;;;;;;;4972185;28;20959;-45
2021/08/20 07:39:26;;;;;;;32.17;18.20;;;;;;;;;;4971882;28;20918;-45
2021/08/20 07:41:52;;;;;;;38.67;21.80;;;;;;;;;;4972066;28;20375;-44
2021/08/20 07:44:18;;;;;;;33.63;20.50;;;;;;;;;;4972024;28;20378;-47
2021/08/20 07:46:44;;;;;;;37.77;21.07;;;;;;;;;;4971761;28;20452;-45
2021/08/20 07:49:10;;;;;;;32.33;20.47;;;;;;;;;;4971613;28;20624;-45
2021/08/20 07:51:36;;;;;;;38.03;20.57;;;;;;;;;;4971701;28;20745;-46
2021/08/20 07:54:02;;;;;;;35.53;20.90;;;;;;;;;;4971896;28;20412;-46
2021/08/20 07:56:28;;;;;;;38.37;18.80;;;;;;;;;;4971755;28;20391;-45
2021/08/20 07:58:55;;;;;;;41.47;21.37;;;;;;;;;;4971596;28;20464;-45
2021/08/20 08:01:22;;;;;;;35.00;21.03;;;;;;;;;;4971750;28;20417;-45
2021/08/20 08:03:48;;;;;;;37.60;22.03;;;;;;;;;;4971788;28;20379;-45
2021/08/20 08:06:16;;;;;;;32.97;21.77;;;;;;;;;;4971681;28;20433;-45
2021/08/20 08:08:42;;;;;;;40.27;22.80;;;;;;;;;;4971811;28;20379;-44
2021/08/20 08:11:09;;;;;;;39.53;21.60;;;;;;;;;;4971470;28;20406;-45
2021/08/20 08:13:35;;;;;;;36.30;20.90;;;;;;;;;;4971769;28;20394;-46
2021/08/20 08:16:02;;;;;;;40.93;23.80;;;;;;;;;;4971565;28;20404;-47
2021/08/20 08:18:28;;;;;;;32.03;21.53;;;;;;;;;;4971758;28;20409;-47
2021/08/20 08:20:54;;;;;;;36.03;22.70;;;;;;;;;;4971773;28;20451;-45
2021/08/20 08:23:19;;;;;;;33.43;19.80;;;;;;;;;;4971606;28;20717;-44
2021/08/20 08:25:46;;;;;;;31.57;19.40;;;;;;;;;;4971610;28;20452;-45
2021/08/20 08:28:12;;;;;;;28.50;18.53;;;;;;;;;;4971505;28;20401;-44
2021/08/20 08:30:39;;;;;;;29.27;18.27;;;;;;;;;;4971331;28;20516;-45
2021/08/20 08:33:05;;;;;;;26.80;17.97;;;;;;;;;;4971343;28;20414;-45
2021/08/20 08:35:31;;;;;;;26.20;18.50;;;;;;;;;;4971509;28;20407;-45
2021/08/20 08:38:07;;;;;;;25.53;18.57;;;;;;;;;;4971576;28;20491;-45
2021/08/20 08:40:34;;;;;;;19.10;15.63;;;;;;;;;;4971270;28;20426;-45
2021/08/20 08:43:00;;;;;;;25.40;17.30;;;;;;;;;;4971841;28;20410;-45
2021/08/20 08:45:26;;;;;;;26.80;16.00;;;;;;;;;;4971237;28;20390;-45
2021/08/20 08:47:54;;;;;;;24.70;16.83;;;;;;;;;;4974954;28;20413;-45
2021/08/20 08:50:20;;;;;;;23.10;17.53;;;;;;;;;;4974665;28;20787;-44
2021/08/20 08:52:46;;;;;;;27.87;16.40;;;;;;;;;;4974887;28;20396;-45
2021/08/20 08:55:12;;;;;;;25.50;17.23;;;;;;;;;;4974829;28;20401;-45
2021/08/20 08:57:38;;;;;;;24.80;19.13;;;;;;;;;;4974865;28;20403;-45
2021/08/20 09:00:05;;;;;;;23.13;17.57;;;;;;;;;;4970639;28;20939;-45
2021/08/20 09:02:36;;;;;;;18.93;15.60;;;;;;;;;;4957479;28;20434;-47
2021/08/20 09:05:05;;;;;;;21.00;15.70;;;;;;;;;;4967713;28;20471;-48
2021/08/20 09:07:33;;;;;;;21.90;15.40;;;;;;;;;;4957626;28;20588;-45
2021/08/20 09:10:09;;;;;;;21.90;16.23;;;;;;;;;;4973508;28;20519;-44
2021/08/20 09:12:35;;;;;;;19.00;15.50;;;;;;;;;;4974517;28;20465;-45
2021/08/20 09:15:01;;;;;;;16.77;14.47;;;;;;;;;;4974934;28;20416;-45
2021/08/20 09:17:35;;;;;;;16.00;14.23;;;;;;;;;;4974640;28;20421;-45
2021/08/20 09:20:14;;;;;;;14.50;13.00;;;;;;;;;;4974120;28;20964;-46
2021/08/20 09:22:40;;;;;;;12.70;11.40;;;;;;;;;;4974543;28;20451;-45
2021/08/20 09:25:06;;;;;;;11.67;10.23;;;;;;;;;;4974160;28;20455;-45
2021/08/20 09:27:32;;;;;;;13.20;11.27;;;;;;;;;;4974156;28;20811;-45
2021/08/20 09:30:11;;;;;;;12.77;9.70;;;;;;;;;;4974053;28;20427;-45
2021/08/20 09:32:53;;;;;;;13.73;9.53;;;;;;;;;;4974546;28;20455;-47
2021/08/20 09:35:19;;;;;;;9.83;8.93;;;;;;;;;;4974046;28;20409;-47
2021/08/20 09:37:45;;;;;;;8.30;7.60;;;;;;;;;;4974048;28;20412;-47
2021/08/20 09:40:13;;;;;;;8.20;7.40;;;;;;;;;;4973782;28;20992;-48
2021/08/20 09:42:40;;;;;;;7.30;6.60;;;;;;;;;;4973948;28;20413;-45
2021/08/20 09:45:24;;;;;;;6.10;5.60;;;;;;;;;;4974061;28;20484;-48
2021/08/20 09:47:54;;;;;;;6.33;5.83;;;;;;;;;;4973843;28;20436;-49
2021/08/20 09:50:21;;;;;;;7.80;7.00;;;;;;;;;;4973484;28;20428;-47
2021/08/20 09:52:47;;;;;;;8.73;6.60;;;;;;;;;;4973759;28;20390;-48
2021/08/20 09:55:33;;;;;;;6.33;5.83;;;;;;;;;;4973913;28;20491;-45
2021/08/20 09:58:00;;;;;;;8.70;7.63;;;;;;;;;;4972605;28;20405;-46
2021/08/20 10:00:26;;;;;;;7.47;6.77;;;;;;;;;;4973272;28;20662;-45
2021/08/20 10:02:52;;;;;;;7.80;7.10;;;;;;;;;;4973682;28;20433;-45
2021/08/20 10:05:19;;;;;;;8.03;7.30;;;;;;;;;;4973580;28;20488;-45
2021/08/20 10:07:45;;;;;;;9.00;8.17;;;;;;;;;;4973716;28;20401;-46
2021/08/20 10:10:11;;;;;;;6.90;6.30;;;;;;;;;;4973206;28;20951;-47
2021/08/20 10:12:39;;;;;;;7.23;6.53;;;;;;;;;;4973470;28;20527;-47
2021/08/20 10:15:05;;;;;;;7.03;6.33;;;;;;;;;;4973320;28;20508;-47
2021/08/20 10:17:31;;;;;;;5.70;5.20;;;;;;;;;;4973436;28;20409;-47
2021/08/20 10:19:59;;;;;;;6.10;5.60;;;;;;;;;;4973027;28;21039;-48
2021/08/20 10:22:25;;;;;;;5.13;4.73;;;;;;;;;;4973484;28;20412;-45
2021/08/20 10:24:51;;;;;;;5.90;5.37;;;;;;;;;;4973385;28;20885;-45
2021/08/20 10:27:18;;;;;;;4.60;4.30;;;;;;;;;;4973389;28;20544;-45
2021/08/20 10:29:47;;;;;;;8.50;5.30;;;;;;;;;;4973429;28;20457;-47
2021/08/20 10:32:14;;;;;;;6.00;5.40;;;;;;;;;;4940573;28;20491;-47
2021/08/20 10:34:41;;;;;;;4.70;4.40;;;;;;;;;;4973495;28;20508;-47
2021/08/20 10:37:14;;;;;;;4.70;4.23;;;;;;;;;;4973335;28;20408;-47
2021/08/20 10:39:48;;;;;;;4.40;4.10;;;;;;;;;;4972861;28;20967;-46
2021/08/20 10:42:15;;;;;;;3.80;3.50;;;;;;;;;;4973049;28;20474;-47
2021/08/20 10:44:43;;;;;;;3.63;3.10;;;;;;;;;;4955494;28;20862;-47
2021/08/20 10:47:10;;;;;;;3.37;3.07;;;;;;;;;;4955905;28;20829;-47
2021/08/20 10:49:36;;;;;;;3.10;2.90;;;;;;;;;;4940055;28;20448;-45
2021/08/20 10:52:03;;;;;;;3.53;2.90;;;;;;;;;;4972669;28;20401;-48
2021/08/20 10:54:32;;;;;;;4.43;3.03;;;;;;;;;;4972730;28;20911;-47
2021/08/20 10:57:01;;;;;;;3.80;3.03;;;;;;;;;;4972729;28;20915;-45
2021/08/20 10:59:36;;;;;;;3.30;3.10;;;;;;;;;;4972503;28;20433;-47
2021/08/20 11:02:24;;;;;;;3.20;2.90;;;;;;;;;;4972799;28;20544;-45
2021/08/20 11:05:10;;;;;;;3.30;2.87;;;;;;;;;;4972417;28;20409;-47
2021/08/20 11:07:42;;;;;;;3.17;2.87;;;;;;;;;;4972287;28;20496;-46
2021/08/20 11:10:08;;;;;;;4.70;2.77;;;;;;;;;;4971856;28;20417;-45
2021/08/20 11:12:47;;;;;;;4.20;2.73;;;;;;;;;;4972444;28;20479;-45
2021/08/20 11:15:19;;;;;;;3.30;3.00;;;;;;;;;;4972331;28;20397;-45
2021/08/20 11:17:52;;;;;;;4.50;3.20;;;;;;;;;;4972583;28;20397;-45
2021/08/20 11:20:19;;;;;;;2.87;2.60;;;;;;;;;;4971912;28;20452;-45
2021/08/20 11:22:46;;;;;;;3.90;2.63;;;;;;;;;;4972240;28;20412;-45
2021/08/20 11:25:15;;;;;;;4.13;3.70;;;;;;;;;;4972402;28;20403;-46
2021/08/20 11:27:53;;;;;;;4.20;3.80;;;;;;;;;;4972102;28;20494;-46
2021/08/20 11:30:20;;;;;;;4.17;3.70;;;;;;;;;;4971695;28;20429;-45
2021/08/20 11:32:46;;;;;;;4.40;3.40;;;;;;;;;;4972146;28;20391;-45
2021/08/20 11:35:12;;;;;;;3.70;3.30;;;;;;;;;;4971870;28;20397;-45
2021/08/20 11:37:51;;;;;;;3.03;2.93;;;;;;;;;;4972081;28;20407;-45
2021/08/20 11:40:26;;;;;;;4.33;3.33;;;;;;;;;;4954507;28;20486;-45
2021/08/20 11:43:12;;;;;;;3.30;3.13;;;;;;;;;;4971972;28;20445;-46
2021/08/20 11:45:38;;;;;;;3.53;3.30;;;;;;;;;;4971834;28;20822;-46
2021/08/20 11:48:05;;;;;;;3.40;3.20;;;;;;;;;;4971861;28;20409;-46
2021/08/20 11:50:32;;;;;;;3.67;3.37;;;;;;;;;;4971718;28;20425;-46
2021/08/20 11:52:59;;;;;;;3.83;3.60;;;;;;;;;;4972232;28;20497;-46
2021/08/20 11:55:25;;;;;;;4.30;3.97;;;;;;;;;;4971856;28;20402;-46
2021/08/20 11:57:51;;;;;;;4.30;3.90;;;;;;;;;;4972367;28;20409;-47
2021/08/20 12:00:17;;;;;;;4.17;3.87;;;;;;;;;;4971498;28;21156;-46
2021/08/20 12:02:43;;;;;;;4.07;3.77;;;;;;;;;;4971711;28;20405;-46
2021/08/20 12:05:12;;;;;;;4.40;4.10;;;;;;;;;;4971750;28;20408;-46
2021/08/20 12:07:38;;;;;;;6.00;4.07;;;;;;;;;;4972356;28;20466;-46
2021/08/20 12:10:04;;;;;;;4.27;3.97;;;;;;;;;;4971644;28;20476;-46
2021/08/20 12:12:33;;;;;;;3.87;3.67;;;;;;;;;;4971776;28;21036;-45
2021/08/20 12:14:59;;;;;;;3.47;3.27;;;;;;;;;;4971750;28;20405;-45
2021/08/20 12:17:28;;;;;;;2.17;2.07;;;;;;;;;;4972056;28;20439;-45
2021/08/20 12:19:56;;;;;;;2.37;2.27;;;;;;;;;;4971260;28;20844;-46
2021/08/20 12:22:32;;;;;;;2.13;2.03;;;;;;;;;;4974550;28;20417;-45
2021/08/20 12:24:58;;;;;;;4.40;2.20;;;;;;;;;;4975613;28;20404;-47
2021/08/20 12:27:28;;;;;;;2.10;2.00;;;;;;;;;;4975820;28;20472;-46
2021/08/20 12:29:57;;;;;;;4.17;2.53;;;;;;;;;;4975199;28;20425;-46
2021/08/20 12:32:24;;;;;;;2.60;2.50;;;;;;;;;;4975644;28;20405;-47
2021/08/20 12:34:57;;;;;;;2.40;2.20;;;;;;;;;;4975671;28;20410;-48
2021/08/20 12:37:23;;;;;;;6.60;3.40;;;;;;;;;;4975513;28;20421;-46
2021/08/20 12:39:49;;;;;;;2.93;2.63;;;;;;;;;;4974811;28;20435;-46
2021/08/20 12:42:25;;;;;;;2.17;2.07;;;;;;;;;;4973493;28;20410;-46
2021/08/20 12:45:07;;;;;;;2.93;2.73;;;;;;;;;;4974731;28;20404;-46
2021/08/20 12:47:33;;;;;;;2.93;2.73;;;;;;;;;;4974903;28;20498;-46
2021/08/20 12:50:19;;;;;;;2.70;2.50;;;;;;;;;;4974708;28;20952;-46
2021/08/20 12:52:45;;;;;;;2.33;2.10;;;;;;;;;;4974911;28;20405;-46
2021/08/20 12:55:30;;;;;;;2.20;2.00;;;;;;;;;;4974997;28;20483;-47
2021/08/20 12:57:57;;;;;;;3.77;1.83;;;;;;;;;;4974927;28;20397;-47
2021/08/20 13:00:24;;;;;;;1.90;1.80;;;;;;;;;;4974515;28;20416;-46
2021/08/20 13:02:50;;;;;;;1.90;1.80;;;;;;;;;;4974808;28;20745;-46
2021/08/20 13:05:16;;;;;;;2.30;2.10;;;;;;;;;;4974716;28;20548;-46
2021/08/20 13:07:42;;;;;;;2.20;2.10;;;;;;;;;;4974633;28;20452;-47
2021/08/20 13:10:08;;;;;;;2.73;2.10;;;;;;;;;;4974117;28;20428;-46
2021/08/20 13:12:34;;;;;;;2.43;2.23;;;;;;;;;;4974454;28;20424;-47
2021/08/20 13:15:00;;;;;;;2.00;1.80;;;;;;;;;;4974457;28;20772;-47
2021/08/20 13:17:26;;;;;;;1.87;1.77;;;;;;;;;;4974394;28;20893;-47
2021/08/20 13:19:52;;;;;;;2.23;2.00;;;;;;;;;;4974107;28;20623;-47
2021/08/20 13:22:18;;;;;;;10.60;2.70;;;;;;;;;;4974599;28;20488;-47
2021/08/20 13:24:44;;;;;;;2.70;1.83;;;;;;;;;;4974063;28;20440;-47
2021/08/20 13:27:10;;;;;;;2.20;2.00;;;;;;;;;;4974267;28;20469;-46
2021/08/20 13:29:36;;;;;;;2.33;2.20;;;;;;;;;;4973759;28;20960;-47
2021/08/20 13:32:03;;;;;;;2.17;1.97;;;;;;;;;;4974181;28;20924;-46
2021/08/20 13:34:29;;;;;;;2.90;1.90;;;;;;;;;;4974206;28;20802;-46
2021/08/20 13:36:55;;;;;;;2.30;2.17;;;;;;;;;;4974520;28;20405;-46
2021/08/20 13:39:21;;;;;;;2.00;1.90;;;;;;;;;;4973654;28;20487;-46
2021/08/20 13:41:47;;;;;;;2.67;2.30;;;;;;;;;;4973994;28;20432;-46
2021/08/20 13:44:13;;;;;;;5.03;2.20;;;;;;;;;;4973944;28;20496;-46
2021/08/20 13:46:39;;;;;;;4.60;2.67;;;;;;;;;;4974017;28;20464;-46
2021/08/20 13:49:05;;;;;;;3.00;2.30;;;;;;;;;;4973740;28;20428;-46
2021/08/20 13:51:32;;;;;;;2.60;2.40;;;;;;;;;;4973579;28;20408;-46
2021/08/20 13:53:58;;;;;;;2.20;2.00;;;;;;;;;;4973742;28;20412;-46
2021/08/20 13:56:25;;;;;;;5.87;2.63;;;;;;;;;;4973724;28;20419;-46
2021/08/20 13:58:51;;;;;;;3.07;2.83;;;;;;;;;;4973399;28;20428;-46
2021/08/20 14:01:16;;;;;;;2.37;2.17;;;;;;;;;;4973597;28;20412;-47
2021/08/20 14:03:43;;;;;;;2.20;1.93;;;;;;;;;;4973533;28;20409;-45
2021/08/20 14:06:09;;;;;;;2.40;2.20;;;;;;;;;;4973301;28;20595;-46
2021/08/20 14:08:35;;;;;;;1.93;1.80;;;;;;;;;;4973280;28;20436;-46
2021/08/20 14:11:04;;;;;;;7.70;2.00;;;;;;;;;;4973394;28;20453;-46
2021/08/20 14:13:30;;;;;;;2.00;1.90;;;;;;;;;;4973508;28;20404;-47
2021/08/20 14:15:56;;;;;;;2.40;2.20;;;;;;;;;;4973457;28;20479;-46
2021/08/20 14:18:22;;;;;;;2.40;2.30;;;;;;;;;;4973192;28;20421;-46
2021/08/20 14:20:48;;;;;;;3.07;2.87;;;;;;;;;;4973058;28;20436;-47
2021/08/20 14:23:16;;;;;;;2.87;2.67;;;;;;;;;;4973115;28;20417;-47
2021/08/20 14:25:42;;;;;;;2.70;2.50;;;;;;;;;;4971925;28;20413;-46
2021/08/20 14:28:08;;;;;;;2.77;2.57;;;;;;;;;;4972817;28;20405;-47